createdAt,value
2019-02-20T00:00:26.180Z,3.90
2019-02-20T00:02:54.758Z,4.20
2019-02-20T00:05:23.374Z,4.40
2019-02-20T00:07:51.828Z,4.43
2019-02-20T00:10:20.410Z,4.40
2019-02-20T00:12:48.997Z,4.20
2019-02-20T00:15:17.539Z,4.30
2019-02-20T00:17:46.456Z,4.20
2019-02-20T00:20:14.911Z,4.40
2019-02-20T00:22:43.370Z,4.70
2019-02-20T00:25:11.899Z,4.43
2019-02-20T00:27:40.398Z,4.43
2019-02-20T00:30:10.667Z,4.70
2019-02-20T00:32:39.128Z,5.03
2019-02-20T00:35:07.614Z,4.87
2019-02-20T00:37:36.088Z,4.27
2019-02-20T00:40:07.807Z,4.03
2019-02-20T00:42:36.332Z,4.40
2019-02-20T00:45:17.961Z,4.20
2019-02-20T00:47:48.074Z,3.90
2019-02-20T00:50:17.132Z,4.63
2019-02-20T00:52:49.782Z,3.93
2019-02-20T00:55:17.441Z,4.33
2019-02-20T00:57:45.905Z,3.80
2019-02-20T01:00:15.719Z,4.17
2019-02-20T01:02:44.328Z,4.00
2019-02-20T01:05:12.788Z,4.20
2019-02-20T01:07:41.270Z,3.97
2019-02-20T01:10:09.763Z,3.97
2019-02-20T01:12:38.299Z,4.40
2019-02-20T01:15:11.197Z,3.97
2019-02-20T01:17:41.519Z,4.93
2019-02-20T01:20:10.511Z,4.40
2019-02-20T01:22:38.975Z,4.20
2019-02-20T01:25:07.604Z,4.10
2019-02-20T01:27:36.109Z,5.40
2019-02-20T01:30:07.509Z,4.50
2019-02-20T01:32:35.968Z,4.43
2019-02-20T01:35:04.782Z,4.80
2019-02-20T01:37:33.333Z,4.10
2019-02-20T01:40:01.807Z,4.40
2019-02-20T01:42:30.276Z,4.37
2019-02-20T01:44:58.774Z,4.20
2019-02-20T01:47:27.591Z,3.97
2019-02-20T01:49:56.056Z,4.27
2019-02-20T01:52:24.586Z,4.20
2019-02-20T01:54:53.062Z,3.67
2019-02-20T01:57:21.577Z,3.57
2019-02-20T01:59:50.036Z,4.00
2019-02-20T02:02:18.485Z,4.20
2019-02-20T02:04:46.983Z,4.43
2019-02-20T02:07:15.448Z,4.00
2019-02-20T02:09:43.978Z,3.90
2019-02-20T02:12:12.436Z,4.37
2019-02-20T02:14:40.933Z,4.30
2019-02-20T02:17:09.761Z,4.77
2019-02-20T02:19:38.228Z,4.20
2019-02-20T02:22:06.693Z,4.20
2019-02-20T02:24:35.262Z,4.27
2019-02-20T02:27:03.723Z,4.53
2019-02-20T02:29:32.207Z,4.27
2019-02-20T02:32:00.711Z,4.03
2019-02-20T02:34:29.182Z,4.30
2019-02-20T02:36:57.676Z,4.37
2019-02-20T02:39:26.216Z,4.03
2019-02-20T02:41:54.775Z,4.60
2019-02-20T02:44:23.338Z,3.90
2019-02-20T02:46:52.029Z,4.10
2019-02-20T02:49:21.478Z,4.37
2019-02-20T02:51:50.198Z,3.90
2019-02-20T02:54:18.676Z,4.13
2019-02-20T02:56:47.316Z,4.20
2019-02-20T02:59:15.810Z,4.30
2019-02-20T03:01:44.478Z,4.20
2019-02-20T03:04:13.170Z,4.07
2019-02-20T03:06:41.852Z,3.83
2019-02-20T03:09:10.336Z,4.47
2019-02-20T03:11:38.972Z,3.83
2019-02-20T03:14:07.508Z,4.10
2019-02-20T03:16:35.967Z,4.30
2019-02-20T03:19:04.501Z,4.60
2019-02-20T03:21:32.975Z,4.40
2019-02-20T03:24:02.572Z,3.93
2019-02-20T03:26:31.175Z,4.30
2019-02-20T03:28:59.668Z,4.67
2019-02-20T03:31:28.575Z,4.20
2019-02-20T03:33:57.134Z,4.27
2019-02-20T03:36:26.662Z,4.27
2019-02-20T03:38:55.555Z,4.23
2019-02-20T03:41:24.330Z,4.07
2019-02-20T03:43:52.945Z,4.43
2019-02-20T03:46:21.612Z,4.10
2019-02-20T03:48:51.901Z,4.00
2019-02-20T03:51:20.381Z,4.20
2019-02-20T03:53:51.943Z,4.20
2019-02-20T03:56:18.987Z,4.30
2019-02-20T03:58:47.509Z,4.80
2019-02-20T04:01:15.992Z,4.33
2019-02-20T04:03:45.780Z,4.20
2019-02-20T04:06:14.488Z,4.37
2019-02-20T04:08:43.143Z,4.30
2019-02-20T04:11:11.728Z,4.00
2019-02-20T04:13:40.303Z,4.53
2019-02-20T04:16:08.888Z,4.70
2019-02-20T04:18:37.909Z,4.77
2019-02-20T04:21:06.593Z,4.20
2019-02-20T04:23:35.048Z,4.50
2019-02-20T04:26:03.662Z,4.63
2019-02-20T04:28:32.314Z,4.27
2019-02-20T04:31:01.031Z,5.00
2019-02-20T04:33:31.664Z,4.20
2019-02-20T04:35:59.908Z,4.50
2019-02-20T04:38:28.622Z,4.70
2019-02-20T04:40:57.227Z,4.90
2019-02-20T04:43:25.757Z,4.63
2019-02-20T04:45:54.360Z,4.60
2019-02-20T04:48:22.934Z,4.70
2019-02-20T04:50:51.414Z,5.17
2019-02-20T04:53:20.068Z,4.63
2019-02-20T04:55:48.814Z,5.10
2019-02-20T04:58:19.142Z,4.77
2019-02-20T05:00:47.584Z,5.03
2019-02-20T05:03:17.181Z,4.60
2019-02-20T05:05:46.014Z,4.30
2019-02-20T05:08:15.773Z,4.67
2019-02-20T05:10:44.681Z,4.53
2019-02-20T05:13:13.298Z,4.90
2019-02-20T05:15:41.851Z,5.17
2019-02-20T05:18:10.434Z,5.23
2019-02-20T05:20:39.336Z,4.77
2019-02-20T05:23:09.668Z,4.50
2019-02-20T05:25:39.100Z,5.07
2019-02-20T05:28:07.873Z,5.60
2019-02-20T05:30:39.798Z,5.50
2019-02-20T05:33:09.332Z,4.70
2019-02-20T05:35:37.886Z,5.00
2019-02-20T05:38:06.910Z,4.97
2019-02-20T05:40:35.601Z,4.40
2019-02-20T05:43:04.158Z,5.23
2019-02-20T05:45:33.034Z,5.53
2019-02-20T05:48:01.502Z,5.47
2019-02-20T05:50:30.073Z,6.67
2019-02-20T05:52:58.613Z,6.20
2019-02-20T05:55:27.612Z,5.83
2019-02-20T05:57:56.133Z,5.63
2019-02-20T06:00:24.669Z,5.60
2019-02-20T06:02:53.129Z,5.60
2019-02-20T06:05:21.628Z,5.70
2019-02-20T06:07:50.106Z,5.60
2019-02-20T06:10:18.621Z,5.70
2019-02-20T06:12:47.100Z,6.33
2019-02-20T06:15:15.577Z,5.90
2019-02-20T06:17:44.087Z,5.90
2019-02-20T06:20:12.983Z,5.53
2019-02-20T06:22:41.474Z,5.83
2019-02-20T06:25:10.053Z,5.20
2019-02-20T06:27:38.494Z,5.70
2019-02-20T06:30:10.146Z,5.83
2019-02-20T06:32:39.104Z,5.53
2019-02-20T06:35:07.788Z,5.90
2019-02-20T06:37:36.334Z,5.90
2019-02-20T06:40:07.578Z,5.37
2019-02-20T06:42:36.199Z,5.93
2019-02-20T06:45:07.696Z,6.07
2019-02-20T06:47:36.304Z,6.00
2019-02-20T06:50:07.391Z,5.97
2019-02-20T06:52:35.863Z,6.23
2019-02-20T06:55:06.978Z,6.47
2019-02-20T06:57:35.428Z,5.77
2019-02-20T07:00:04.679Z,6.17
2019-02-20T07:02:33.191Z,6.67
2019-02-20T07:05:30.513Z,6.00
2019-02-20T07:08:18.746Z,6.20
2019-02-20T07:11:09.483Z,6.00
2019-02-20T07:13:41.265Z,6.93
2019-02-20T07:16:15.592Z,6.90
2019-02-20T07:18:50.198Z,7.53
2019-02-20T07:21:40.390Z,7.40
2019-02-20T07:24:12.453Z,6.83
2019-02-20T07:26:52.877Z,7.13
2019-02-20T07:29:27.618Z,6.70
2019-02-20T07:31:56.079Z,6.90
2019-02-20T07:34:24.537Z,6.93
2019-02-20T07:36:53.061Z,7.37
2019-02-20T07:39:21.522Z,7.10
2019-02-20T07:41:50.131Z,7.47
2019-02-20T07:44:18.595Z,7.27
2019-02-20T07:46:47.056Z,7.70
2019-02-20T07:49:15.549Z,6.97
2019-02-20T07:51:44.199Z,7.37
2019-02-20T07:54:12.665Z,7.33
2019-02-20T07:56:41.180Z,6.77
2019-02-20T07:59:09.665Z,7.27
2019-02-20T08:01:38.272Z,7.10
2019-02-20T08:04:06.786Z,7.70
2019-02-20T08:06:35.345Z,7.53
2019-02-20T08:09:06.047Z,7.23
2019-02-20T08:11:34.970Z,7.17
2019-02-20T08:14:03.584Z,7.97
2019-02-20T08:16:32.057Z,7.50
2019-02-20T08:19:01.892Z,8.00
2019-02-20T08:21:30.658Z,7.83
2019-02-20T08:23:59.188Z,8.07
2019-02-20T08:26:27.757Z,7.87
2019-02-20T08:28:56.819Z,7.30
2019-02-20T08:31:25.291Z,7.83
2019-02-20T08:33:53.795Z,8.03
2019-02-20T08:36:22.282Z,7.83
2019-02-20T08:38:50.755Z,7.53
2019-02-20T08:41:19.271Z,8.10
2019-02-20T08:43:47.747Z,8.37
2019-02-20T08:46:16.219Z,8.43
2019-02-20T08:48:44.744Z,7.67
2019-02-20T08:51:13.242Z,7.97
2019-02-20T08:53:41.726Z,8.27
2019-02-20T08:56:10.204Z,8.37
2019-02-20T08:58:38.789Z,8.20
2019-02-20T09:01:07.382Z,8.30
2019-02-20T09:03:35.865Z,8.93
2019-02-20T09:06:04.362Z,8.23
2019-02-20T09:08:32.853Z,8.60
2019-02-20T09:11:01.465Z,8.47
2019-02-20T09:13:29.925Z,8.63
2019-02-20T09:15:58.468Z,8.63
2019-02-20T09:18:27.014Z,8.03
2019-02-20T09:20:55.472Z,9.10
2019-02-20T09:23:24.495Z,8.40
2019-02-20T09:25:52.972Z,9.07
2019-02-20T09:28:21.623Z,9.27
2019-02-20T09:30:50.077Z,9.00
2019-02-20T09:33:18.592Z,9.17
2019-02-20T09:35:47.076Z,9.50
2019-02-20T09:38:15.599Z,8.87
2019-02-20T09:40:44.081Z,8.73
2019-02-20T09:43:14.122Z,8.93
2019-02-20T09:45:44.506Z,9.53
2019-02-20T09:48:12.781Z,9.20
2019-02-20T09:50:41.268Z,9.00
2019-02-20T09:53:09.752Z,9.63
2019-02-20T09:55:38.576Z,8.77
2019-02-20T09:58:07.134Z,9.03
2019-02-20T10:00:35.945Z,9.47
2019-02-20T10:03:04.631Z,9.33
2019-02-20T10:05:33.055Z,9.67
2019-02-20T10:08:01.668Z,9.27
2019-02-20T10:10:30.482Z,9.77
2019-02-20T10:12:59.071Z,10.03
2019-02-20T10:15:27.540Z,9.77
2019-02-20T10:17:56.050Z,9.80
2019-02-20T10:20:24.515Z,9.83
2019-02-20T10:22:53.195Z,9.90
2019-02-20T10:25:21.654Z,10.23
2019-02-20T10:27:50.160Z,9.03
2019-02-20T10:30:21.973Z,9.30
2019-02-20T10:32:50.472Z,9.63
2019-02-20T10:35:18.979Z,10.00
2019-02-20T10:37:47.451Z,9.57
2019-02-20T10:40:15.968Z,10.33
2019-02-20T10:42:44.446Z,9.57
2019-02-20T10:45:13.655Z,9.20
2019-02-20T10:47:42.260Z,9.57
2019-02-20T10:50:12.380Z,10.17
2019-02-20T10:52:40.864Z,10.00
2019-02-20T10:55:10.170Z,9.50
2019-02-20T10:57:39.099Z,9.70
2019-02-20T11:00:23.143Z,9.47
2019-02-20T11:02:42.923Z,9.80
2019-02-20T11:05:11.610Z,9.83
2019-02-20T11:07:40.030Z,9.57
2019-02-20T11:10:09.475Z,9.90
2019-02-20T11:12:38.009Z,8.93
2019-02-20T11:15:08.016Z,9.53
2019-02-20T11:17:37.255Z,9.87
2019-02-20T11:20:09.367Z,9.93
2019-02-20T11:22:39.721Z,9.23
2019-02-20T11:25:10.704Z,9.70
2019-02-20T11:27:39.626Z,9.40
2019-02-20T11:30:25.651Z,8.93
2019-02-20T11:32:54.260Z,9.30
2019-02-20T11:35:22.703Z,10.07
2019-02-20T11:37:51.179Z,9.13
2019-02-20T11:40:19.768Z,9.57
2019-02-20T11:42:48.302Z,9.70
2019-02-20T11:45:17.747Z,9.47
2019-02-20T11:47:46.277Z,9.80
2019-02-20T11:50:14.754Z,9.77
2019-02-20T11:52:43.264Z,9.93
2019-02-20T11:55:14.044Z,10.80
2019-02-20T11:57:42.524Z,9.87
2019-02-20T12:00:15.957Z,10.57
2019-02-20T12:02:44.611Z,9.50
2019-02-20T12:05:13.377Z,10.23
2019-02-20T12:07:41.862Z,9.70
2019-02-20T12:10:13.075Z,9.17
2019-02-20T12:12:41.704Z,9.53
2019-02-20T12:15:10.423Z,9.37
2019-02-20T12:17:39.038Z,9.80
2019-02-20T12:20:09.181Z,9.43
2019-02-20T12:22:37.807Z,9.67
2019-02-20T12:25:08.140Z,9.30
2019-02-20T12:27:36.670Z,9.83
2019-02-20T12:30:12.760Z,9.30
2019-02-20T12:32:41.264Z,9.73
2019-02-20T12:35:09.820Z,9.40
2019-02-20T12:37:38.419Z,10.00
2019-02-20T12:40:09.140Z,9.03
2019-02-20T12:42:37.879Z,9.43
2019-02-20T12:45:11.605Z,9.57
2019-02-20T12:47:40.194Z,9.77
2019-02-20T12:50:14.057Z,9.50
2019-02-20T12:52:42.629Z,10.50
2019-02-20T12:55:11.414Z,10.07
2019-02-20T12:57:40.060Z,9.63
2019-02-20T13:00:11.585Z,9.03
2019-02-20T13:02:40.186Z,9.80
2019-02-20T13:05:09.034Z,9.10
2019-02-20T13:07:37.566Z,9.23
2019-02-20T13:10:07.636Z,9.87
2019-02-20T13:12:36.204Z,8.93
2019-02-20T13:15:07.647Z,9.03
2019-02-20T13:17:36.324Z,8.87
2019-02-20T13:20:06.738Z,9.10
2019-02-20T13:22:35.241Z,8.70
2019-02-20T13:25:04.209Z,9.00
2019-02-20T13:27:32.913Z,9.10
2019-02-20T13:30:01.431Z,8.97
2019-02-20T13:32:30.384Z,8.97
2019-02-20T13:34:58.962Z,31.20
2019-02-20T13:37:27.534Z,17.43
2019-02-20T13:39:56.595Z,20.90
2019-02-20T13:42:25.166Z,18.17
2019-02-20T13:44:53.940Z,22.63
2019-02-20T13:47:22.827Z,18.53
2019-02-20T13:49:51.567Z,21.90
2019-02-20T13:52:20.015Z,18.60
2019-02-20T13:54:48.581Z,19.07
2019-02-20T13:57:17.484Z,17.57
2019-02-20T13:59:46.048Z,16.77
2019-02-20T14:02:14.507Z,20.00
2019-02-20T14:04:43.019Z,18.13
2019-02-20T14:07:11.637Z,14.83
2019-02-20T14:09:40.221Z,14.53
2019-02-20T14:12:08.713Z,17.17
2019-02-20T14:14:37.481Z,12.53
2019-02-20T14:17:06.169Z,11.47
2019-02-20T14:19:34.841Z,14.67
2019-02-20T14:22:03.802Z,15.27
2019-02-20T14:24:32.297Z,12.50
2019-02-20T14:27:00.923Z,12.87
2019-02-20T14:29:29.531Z,10.40
2019-02-20T14:31:58.039Z,11.20
2019-02-20T14:34:26.652Z,14.97
2019-02-20T14:36:55.229Z,12.33
2019-02-20T14:39:23.829Z,10.30
2019-02-20T14:41:52.298Z,12.53
2019-02-20T14:44:20.833Z,10.40
2019-02-20T14:46:49.912Z,10.70
2019-02-20T14:49:18.521Z,11.80
2019-02-20T14:51:47.010Z,9.37
2019-02-20T14:54:15.482Z,11.67
2019-02-20T14:56:43.976Z,12.77
2019-02-20T14:59:12.497Z,10.07
2019-02-20T15:01:41.017Z,10.87
2019-02-20T15:04:09.970Z,9.40
2019-02-20T15:06:38.465Z,10.77
2019-02-20T15:09:07.016Z,8.53
2019-02-20T15:11:35.520Z,8.80
2019-02-20T15:14:04.052Z,9.17
2019-02-20T15:16:32.564Z,8.07
2019-02-20T15:19:01.200Z,10.87
2019-02-20T15:21:29.652Z,10.10
2019-02-20T15:23:58.161Z,8.87
2019-02-20T15:26:26.689Z,10.00
2019-02-20T15:28:55.281Z,8.50
2019-02-20T15:31:32.933Z,9.13
2019-02-20T15:33:55.516Z,9.40
2019-02-20T15:36:24.540Z,8.20
2019-02-20T15:38:53.012Z,8.27
2019-02-20T15:41:21.526Z,8.70
2019-02-20T15:43:51.529Z,7.87
2019-02-20T15:46:20.152Z,8.80
2019-02-20T15:48:48.657Z,8.60
2019-02-20T15:51:17.179Z,8.63
2019-02-20T15:53:45.761Z,7.63
2019-02-20T15:56:14.357Z,8.53
2019-02-20T15:58:42.862Z,8.10
2019-02-20T16:01:11.645Z,8.53
2019-02-20T16:03:40.350Z,8.57
2019-02-20T16:06:08.864Z,8.60
2019-02-20T16:08:37.698Z,8.33
2019-02-20T16:11:06.168Z,7.73
2019-02-20T16:13:34.678Z,7.73
2019-02-20T16:16:03.248Z,8.50
2019-02-20T16:18:31.725Z,8.03
2019-02-20T16:21:00.618Z,8.33
2019-02-20T16:23:29.066Z,8.43
2019-02-20T16:25:58.232Z,8.03
2019-02-20T16:28:33.561Z,7.90
2019-02-20T16:30:56.916Z,8.07
2019-02-20T16:33:25.402Z,8.17
2019-02-20T16:35:53.931Z,7.67
2019-02-20T16:38:22.491Z,8.40
2019-02-20T16:40:51.007Z,8.63
2019-02-20T16:43:19.955Z,7.83
2019-02-20T16:45:48.902Z,8.33
2019-02-20T16:48:17.373Z,8.50
2019-02-20T16:50:45.972Z,7.90
2019-02-20T16:53:14.434Z,7.93
2019-02-20T16:55:42.946Z,7.57
2019-02-20T16:58:11.480Z,8.03
2019-02-20T17:00:39.963Z,7.77
2019-02-20T17:03:11.730Z,8.40
2019-02-20T17:05:40.219Z,8.23
2019-02-20T17:08:08.783Z,7.43
2019-02-20T17:10:37.289Z,8.67
2019-02-20T17:13:05.875Z,7.60
2019-02-20T17:15:34.699Z,7.40
2019-02-20T17:18:03.297Z,8.07
2019-02-20T17:20:31.826Z,7.93
2019-02-20T17:23:00.331Z,8.53
2019-02-20T17:25:28.812Z,7.70
2019-02-20T17:28:05.568Z,6.80
2019-02-20T17:30:27.554Z,7.57
2019-02-20T17:32:56.051Z,7.00
2019-02-20T17:35:24.556Z,7.70
2019-02-20T17:37:53.072Z,7.20
2019-02-20T17:40:21.566Z,7.20
2019-02-20T17:42:50.052Z,7.40
2019-02-20T17:45:19.286Z,6.77
2019-02-20T17:47:48.570Z,7.57
2019-02-20T17:50:22.511Z,7.10
2019-02-20T17:52:51.032Z,7.20
2019-02-20T17:55:19.492Z,7.20
2019-02-20T17:57:48.374Z,7.40
2019-02-20T18:00:19.222Z,7.00
2019-02-20T18:02:48.117Z,7.33
2019-02-20T18:05:16.603Z,6.80
2019-02-20T18:07:49.805Z,7.13
2019-02-20T18:10:15.231Z,7.07
2019-02-20T18:12:43.875Z,7.53
2019-02-20T18:15:13.649Z,6.97
2019-02-20T18:17:42.261Z,6.87
2019-02-20T18:20:11.486Z,7.17
2019-02-20T18:22:40.015Z,7.33
2019-02-20T18:25:10.254Z,7.63
2019-02-20T18:27:38.841Z,7.03
2019-02-20T18:30:12.837Z,6.50
2019-02-20T18:32:41.471Z,6.87
2019-02-20T18:35:12.450Z,6.80
2019-02-20T18:37:41.161Z,6.80
2019-02-20T18:40:12.101Z,6.67
2019-02-20T18:42:40.660Z,6.70
2019-02-20T18:45:11.550Z,6.43
2019-02-20T18:47:40.094Z,6.90
2019-02-20T18:50:11.253Z,6.50
2019-02-20T18:52:39.740Z,6.23
2019-02-20T18:55:14.646Z,6.40
2019-02-20T18:57:43.192Z,6.17
2019-02-20T19:00:21.435Z,6.07
2019-02-20T19:02:50.231Z,6.77
2019-02-20T19:05:19.397Z,6.73
2019-02-20T19:07:48.090Z,6.03
2019-02-20T19:10:37.746Z,6.30
2019-02-20T19:13:18.641Z,6.30
2019-02-20T19:15:53.324Z,6.17
2019-02-20T19:18:47.814Z,6.37
2019-02-20T19:21:36.430Z,6.63
2019-02-20T19:24:20.492Z,6.13
2019-02-20T19:26:55.221Z,5.90
2019-02-20T19:29:43.600Z,5.50
2019-02-20T19:32:30.434Z,6.10
2019-02-20T19:35:28.028Z,6.13
2019-02-20T19:38:23.597Z,6.23
2019-02-20T19:41:07.393Z,5.60
2019-02-20T19:43:41.935Z,8.90
2019-02-20T19:46:22.044Z,5.77
2019-02-20T19:48:59.597Z,6.10
2019-02-20T19:51:34.251Z,5.37
2019-02-20T19:54:18.303Z,5.97
2019-02-20T19:56:59.298Z,5.43
2019-02-20T19:59:37.093Z,5.43
2019-02-20T20:02:27.823Z,5.53
2019-02-20T20:05:19.320Z,5.47
2019-02-20T20:08:07.541Z,6.10
2019-02-20T20:10:50.604Z,5.47
2019-02-20T20:13:25.094Z,5.50
2019-02-20T20:16:05.941Z,5.40
2019-02-20T20:18:43.478Z,5.43
2019-02-20T20:21:20.913Z,5.33
2019-02-20T20:24:01.710Z,5.87
2019-02-20T20:27:03.837Z,5.53
2019-02-20T20:29:39.964Z,5.70
2019-02-20T20:32:33.850Z,7.00
2019-02-20T20:35:31.456Z,6.67
2019-02-20T20:38:11.915Z,6.30
2019-02-20T20:41:03.403Z,6.00
2019-02-20T20:43:35.132Z,5.77
2019-02-20T20:46:12.950Z,5.70
2019-02-20T20:49:01.307Z,5.70
2019-02-20T20:51:38.597Z,5.60
2019-02-20T20:54:26.661Z,5.80
2019-02-20T20:57:13.609Z,5.50
2019-02-20T20:59:48.130Z,5.20
2019-02-20T21:02:22.695Z,5.50
2019-02-20T21:04:57.482Z,5.50
2019-02-20T21:07:56.613Z,5.60
2019-02-20T21:10:46.651Z,5.20
2019-02-20T21:13:35.112Z,4.83
2019-02-20T21:16:28.113Z,5.13
2019-02-20T21:19:08.809Z,5.77
2019-02-20T21:21:43.116Z,5.00
2019-02-20T21:24:26.927Z,5.40
2019-02-20T21:27:29.122Z,5.23
2019-02-20T21:30:00.886Z,4.70
2019-02-20T21:32:52.205Z,5.27
2019-02-20T21:35:29.752Z,5.70
2019-02-20T21:38:04.170Z,5.40
2019-02-20T21:40:39.501Z,5.93
2019-02-20T21:43:41.440Z,6.13
2019-02-20T21:46:32.651Z,5.30
2019-02-20T21:49:24.680Z,5.80
2019-02-20T21:52:16.090Z,5.67
2019-02-20T21:55:21.272Z,5.43
2019-02-20T21:58:01.553Z,6.40
2019-02-20T22:00:38.992Z,5.27
2019-02-20T22:03:10.784Z,5.50
2019-02-20T22:05:42.552Z,5.60
2019-02-20T22:08:32.543Z,5.40
2019-02-20T22:11:24.393Z,5.33
2019-02-20T22:14:19.215Z,5.10
2019-02-20T22:17:18.302Z,4.90
2019-02-20T22:19:56.168Z,5.20
2019-02-20T22:22:36.961Z,5.13
2019-02-20T22:25:29.776Z,5.20
2019-02-20T22:28:01.577Z,4.90
2019-02-20T22:30:45.012Z,4.90
2019-02-20T22:33:25.402Z,5.33
2019-02-20T22:35:59.542Z,5.23
2019-02-20T22:38:36.968Z,4.60
2019-02-20T22:41:20.550Z,5.10
2019-02-20T22:44:03.824Z,5.00
2019-02-20T22:46:38.256Z,4.90
2019-02-20T22:49:29.205Z,4.70
2019-02-20T22:52:12.643Z,4.83
2019-02-20T22:54:53.205Z,4.80
2019-02-20T22:57:37.143Z,4.43
2019-02-20T23:00:52.315Z,4.43
2019-02-20T23:03:58.680Z,4.43
2019-02-20T23:06:53.127Z,4.90
2019-02-20T23:09:47.751Z,4.60
2019-02-20T23:12:37.335Z,4.90
2019-02-20T23:15:06.636Z,4.93
2019-02-20T23:17:35.146Z,4.50
2019-02-20T23:20:03.944Z,5.37
2019-02-20T23:22:32.537Z,4.80
2019-02-20T23:25:01.156Z,4.70
2019-02-20T23:27:29.697Z,4.73
2019-02-20T23:29:58.239Z,4.97
2019-02-20T23:32:26.796Z,4.73
2019-02-20T23:34:57.141Z,4.70
2019-02-20T23:37:28.726Z,4.40
2019-02-20T23:39:57.193Z,4.57
2019-02-20T23:42:25.709Z,4.70
2019-02-20T23:44:54.178Z,4.27
2019-02-20T23:47:22.644Z,4.50
2019-02-20T23:49:51.305Z,4.70
2019-02-20T23:52:19.848Z,4.50
2019-02-20T23:54:48.348Z,4.40
2019-02-20T23:57:19.956Z,4.70
2019-02-20T23:59:48.412Z,3.97
